Dundee, Texas
Current Conditions -  °F | °C
As of 7:15 AM on Thursday 23 Oct 2014 (Local Time) from KCWC Reporting Station
Scattered Clouds Scattered Clouds  
Wind Chill: 18°   Ceiling: Unl
Heat Index: 18°   Visibility: 10mi
Dew Point: 14°   Wind: 8mph
Humidity: 80%   Direction: 150°SSE
Pressure: 30.11"   Gusts: NA
Location:  33.6107°N, 98.6955°W
Report Text: KCWC 231215Z AUTO 15007KT 10SM SCT070 18/14 A3011 RMK AO2 T01750141
Loading
Personal Weather Stations






























Interactive Weather Map
Tropical Storm Tracking
New forecast layout! Learn more

10-Day Weather Forecast

Advertisements
Track Severe Weather on mobile